Time;durP1;ratioP1;P1;durP2;ratioP2;P2;SDS_P1;SDS_P2;PMS_P1;PMS_P2;Temp;Humidity;BMP_temperature;BMP_pressure;BME280_temperature;BME280_humidity;BME280_pressure;Samples;Min_cycle;Max_cycle;Signal;HPM_P1;HPM_P2
2022/03/01 00:00:04;;;;;;;17.38;6.55;;;;;;;0.21;73.77;99379.53;5068468;28;20057;-79
2022/03/01 00:02:30;;;;;;;18.98;7.15;;;;;;;0.25;74.93;99363.97;5070257;28;20117;-77
2022/03/01 00:04:57;;;;;;;21.10;7.43;;;;;;;0.33;76.68;99377.09;5072393;28;20048;-77
2022/03/01 00:07:26;;;;;;;16.88;6.88;;;;;;;0.24;76.02;99370.31;5072635;28;20045;-78
2022/03/01 00:09:52;;;;;;;17.58;7.07;;;;;;;0.32;76.32;99378.91;5072023;28;20060;-77
2022/03/01 00:12:19;;;;;;;18.65;6.78;;;;;;;0.21;75.53;99378.72;5071572;28;20049;-76
2022/03/01 00:14:46;;;;;;;15.18;6.65;;;;;;;0.14;75.90;99367.25;5071805;28;20094;-79
2022/03/01 00:17:12;;;;;;;16.35;6.88;;;;;;;0.11;77.92;99367.66;5072055;28;20520;-79
2022/03/01 00:19:38;;;;;;;23.48;8.55;;;;;;;0.08;77.41;99366.22;5072577;28;20087;-77
2022/03/01 00:22:05;;;;;;;16.02;6.95;;;;;;;0.23;79.26;99366.03;5071163;28;20049;-77
2022/03/01 00:24:32;;;;;;;17.38;6.80;;;;;;;0.21;79.08;99368.06;5072858;28;20059;-77
2022/03/01 00:26:59;;;;;;;18.05;6.70;;;;;;;0.15;78.79;99364.41;5072636;28;20045;-77
2022/03/01 00:29:25;;;;;;;17.42;7.25;;;;;;;0.19;80.56;99359.47;5070954;28;20150;-78
2022/03/01 00:31:52;;;;;;;18.98;7.45;;;;;;;0.11;83.06;99351.69;5070196;28;20056;-78
2022/03/01 00:34:19;;;;;;;17.60;6.95;;;;;;;0.02;85.32;99347.59;5071040;28;20140;-77
2022/03/01 00:36:46;;;;;;;19.08;6.95;;;;;;;0.13;88.03;99347.78;5071643;28;20481;-77
2022/03/01 00:39:12;;;;;;;18.52;7.03;;;;;;;-0.02;85.64;99355.16;5071666;28;20147;-77
2022/03/01 00:41:39;;;;;;;18.65;7.45;;;;;;;-0.05;88.16;99352.91;5071890;28;20056;-76
2022/03/01 00:44:06;;;;;;;18.90;7.40;;;;;;;0.06;90.46;99351.47;5070764;28;20116;-78
2022/03/01 00:46:32;;;;;;;19.42;7.32;;;;;;;-0.02;88.26;99348.00;5072045;28;20052;-78
2022/03/01 00:48:59;;;;;;;19.02;7.13;;;;;;;-0.08;91.55;99348.00;5070242;28;20131;-78
2022/03/01 00:51:27;;;;;;;22.25;8.27;;;;;;;-0.12;91.63;99357.41;5071152;28;20059;-80
2022/03/01 00:53:54;;;;;;;18.90;7.40;;;;;;;-0.14;93.06;99340.84;5070239;28;20478;-78
2022/03/01 00:56:21;;;;;;;21.92;7.68;;;;;;;-0.05;94.32;99350.25;5071905;28;20212;-78
2022/03/01 00:58:48;;;;;;;20.45;7.32;;;;;;;-0.16;93.54;99346.38;5071204;28;20542;-78
2022/03/01 01:01:14;;;;;;;19.60;7.75;;;;;;;-0.27;95.40;99351.47;5061175;28;20053;-79
2022/03/01 01:03:41;;;;;;;22.75;8.05;;;;;;;-0.26;96.28;99347.81;5049438;28;20134;-78
2022/03/01 01:06:08;;;;;;;20.65;7.18;;;;;;;-0.33;98.09;99345.13;5050332;28;20045;-77
2022/03/01 01:08:34;;;;;;;20.05;6.97;;;;;;;-0.28;95.42;99348.00;5051083;28;20065;-79
2022/03/01 01:11:02;;;;;;;19.38;7.93;;;;;;;-0.32;96.98;99341.44;5051549;28;20194;-77
2022/03/01 01:13:30;;;;;;;21.20;7.47;;;;;;;-0.40;99.86;99331.00;5049450;28;20126;-76
2022/03/01 01:15:57;;;;;;;19.88;7.55;;;;;;;-0.39;100.00;99330.00;5051367;28;20056;-77
2022/03/01 01:18:24;;;;;;;17.13;7.85;;;;;;;-0.43;100.00;99326.06;5051432;28;20467;-77
2022/03/01 01:20:50;;;;;;;21.25;7.85;;;;;;;-0.42;100.00;99327.72;5052254;28;20052;-77
2022/03/01 01:23:17;;;;;;;20.65;7.80;;;;;;;-0.41;100.00;99323.22;5052046;28;20130;-77
2022/03/01 01:25:44;;;;;;;20.42;8.02;;;;;;;-0.47;98.61;99324.03;5053445;28;20056;-77
2022/03/01 01:28:13;;;;;;;18.55;7.47;;;;;;;-0.54;99.80;99329.31;5051259;28;20037;-77
2022/03/01 01:30:40;;;;;;;15.70;7.05;;;;;;;-0.48;97.72;99336.50;5051200;28;20084;-78
2022/03/01 01:33:06;;;;;;;19.60;7.35;;;;;;;-0.48;96.76;99325.88;5051751;28;20099;-80
2022/03/01 01:35:34;;;;;;;19.80;7.28;;;;;;;-0.48;97.41;99315.22;5052011;28;20049;-79
2022/03/01 01:38:01;;;;;;;19.83;7.28;;;;;;;-0.46;97.18;99330.97;5054520;28;20045;-78
2022/03/01 01:40:31;;;;;;;19.60;7.38;;;;;;;-0.46;95.23;99325.66;5050531;28;20049;-79
2022/03/01 01:42:59;;;;;;;21.33;7.43;;;;;;;-0.56;100.00;99328.72;5050779;28;20049;-77
2022/03/01 01:45:27;;;;;;;20.67;7.55;;;;;;;-0.60;100.00;99324.84;5050066;28;20052;-78
2022/03/01 01:47:55;;;;;;;18.20;7.63;;;;;;;-0.64;100.00;99329.72;5049846;28;20490;-77
2022/03/01 01:50:23;;;;;;;18.20;7.82;;;;;;;-0.70;100.00;99327.06;5050253;28;20049;-75
2022/03/01 01:52:51;;;;;;;18.80;7.35;;;;;;;-0.64;100.00;99334.22;5052528;28;20060;-77
2022/03/01 01:55:23;;;;;;;16.05;7.43;;;;;;;-0.71;100.00;99336.06;5052538;28;20052;-79
2022/03/01 01:57:56;;;;;;;16.23;6.65;;;;;;;-0.75;100.00;99318.88;5052679;28;20041;-79
2022/03/01 02:00:23;;;;;;;25.55;7.82;;;;;;;-0.78;100.00;99319.28;5052284;28;20158;-77
2022/03/01 02:02:50;;;;;;;21.05;7.53;;;;;;;-0.80;100.00;99314.13;5050735;28;20110;-77
2022/03/01 02:05:17;;;;;;;21.88;7.72;;;;;;;-0.80;100.00;99327.44;5051627;28;20106;-77
2022/03/01 02:07:48;;;;;;;20.60;7.45;;;;;;;-0.83;100.00;99319.88;5051983;28;20076;-78
2022/03/01 02:10:16;;;;;;;21.90;7.85;;;;;;;-0.89;100.00;99311.88;5050895;28;20553;-79
2022/03/01 02:12:44;;;;;;;18.27;7.68;;;;;;;-0.86;100.00;99311.47;5075053;28;20116;-82
2022/03/01 02:15:12;;;;;;;20.98;7.60;;;;;;;-1.00;100.00;99317.75;5077386;28;20109;-78
2022/03/01 02:17:40;;;;;;;20.48;7.57;;;;;;;-1.03;100.00;99312.88;5059176;28;20060;-77
2022/03/01 02:20:29;;;;;;;15.35;7.03;;;;;;;-1.30;100.00;99323.38;5051678;28;20069;-78
2022/03/01 02:22:56;;;;;;;17.17;6.78;;;;;;;-1.53;100.00;99306.09;5050814;28;20049;-77
2022/03/01 02:25:23;;;;;;;18.70;7.38;;;;;;;-1.67;100.00;99322.97;5049810;28;20060;-78
2022/03/01 02:27:50;;;;;;;21.00;7.82;;;;;;;-1.72;100.00;99312.09;5049641;28;20049;-79
2022/03/01 02:30:17;;;;;;;18.20;7.63;;;;;;;-2.12;100.00;99321.66;5047157;28;20472;-77
2022/03/01 02:32:44;;;;;;;20.98;7.53;;;;;;;-2.11;100.00;99329.41;5048375;28;20076;-77
2022/03/01 02:35:14;;;;;;;19.00;7.30;;;;;;;-2.06;100.00;99318.19;5049118;28;20106;-78
2022/03/01 02:37:42;;;;;;;17.48;7.57;;;;;;;-2.02;100.00;99315.00;5050016;28;20052;-78
2022/03/01 02:40:10;;;;;;;19.05;7.90;;;;;;;-1.96;100.00;99316.84;5049568;28;20144;-80
2022/03/01 02:42:38;;;;;;;19.95;7.55;;;;;;;-1.99;100.00;99311.94;5049553;28;20095;-79
2022/03/01 02:45:06;;;;;;;18.55;7.45;;;;;;;-2.04;100.00;99302.94;5050017;28;20111;-77
2022/03/01 02:47:36;;;;;;;18.88;7.75;;;;;;;-1.98;100.00;99310.09;5048477;28;20206;-77
2022/03/01 02:50:05;;;;;;;18.42;7.93;;;;;;;-2.04;100.00;99305.59;5049700;28;20057;-78
2022/03/01 02:52:32;;;;;;;17.77;7.07;;;;;;;-2.10;100.00;99304.53;5049407;28;20057;-79
2022/03/01 02:54:59;;;;;;;23.17;7.95;;;;;;;-2.12;100.00;99314.50;5048666;28;20606;-79
2022/03/01 02:57:26;;;;;;;20.10;8.07;;;;;;;-2.10;100.00;99311.66;5050393;28;20088;-78
2022/03/01 02:59:53;;;;;;;15.63;6.85;;;;;;;-2.11;100.00;99312.66;5049121;28;20056;-79
2022/03/01 03:02:20;;;;;;;21.75;8.52;;;;;;;-2.07;100.00;99319.22;5048308;28;20198;-80
2022/03/01 03:04:47;;;;;;;19.23;7.85;;;;;;;-2.09;100.00;99305.34;5050138;28;20145;-77
2022/03/01 03:07:14;;;;;;;19.52;8.18;;;;;;;-2.24;100.00;99312.53;5050061;28;20069;-78
2022/03/01 03:09:41;;;;;;;18.83;7.60;;;;;;;-2.35;100.00;99311.25;5049835;28;20102;-78
2022/03/01 03:12:08;;;;;;;20.20;7.57;;;;;;;-2.60;100.00;99318.78;5049449;28;20146;-78
2022/03/01 03:14:35;;;;;;;20.83;7.60;;;;;;;-2.57;100.00;99315.75;5049193;28;20049;-79
2022/03/01 03:17:02;;;;;;;17.52;7.30;;;;;;;-2.63;100.00;99320.97;5050105;28;20555;-79
2022/03/01 03:19:29;;;;;;;22.52;8.73;;;;;;;-2.88;100.00;99317.88;5049100;28;20048;-78
2022/03/01 03:21:56;;;;;;;17.65;7.20;;;;;;;-2.68;100.00;99305.63;5048454;28;20052;-79
2022/03/01 03:24:22;;;;;;;22.92;8.40;;;;;;;-2.83;100.00;99317.31;5048668;28;20052;-79
2022/03/01 03:26:49;;;;;;;18.75;8.00;;;;;;;-2.83;100.00;99319.94;5049371;28;20053;-76
2022/03/01 03:29:16;;;;;;;20.50;7.47;;;;;;;-2.87;100.00;99316.88;5048296;28;20079;-79
2022/03/01 03:31:45;;;;;;;19.45;7.85;;;;;;;-3.03;100.00;99319.75;5048513;28;20200;-77
2022/03/01 03:34:11;;;;;;;21.70;7.80;;;;;;;-2.97;100.00;99321.66;5047507;28;20102;-78
2022/03/01 03:36:41;;;;;;;21.00;8.07;;;;;;;-2.91;100.00;99314.78;5046334;28;20116;-78
2022/03/01 03:39:09;;;;;;;17.73;7.68;;;;;;;-2.87;100.00;99322.19;5048961;28;20439;-78
2022/03/01 03:41:36;;;;;;;20.98;7.78;;;;;;;-2.85;100.00;99324.63;5048280;28;20098;-78
2022/03/01 03:44:03;;;;;;;17.52;7.35;;;;;;;-2.78;100.00;99328.97;5047275;28;20118;-79
2022/03/01 03:46:30;;;;;;;17.65;7.35;;;;;;;-2.81;100.00;99323.22;5047576;28;20044;-78
2022/03/01 03:48:57;;;;;;;19.58;8.55;;;;;;;-2.71;100.00;99324.56;5047399;28;20048;-78
2022/03/01 03:51:23;;;;;;;21.20;8.23;;;;;;;-2.64;100.00;99309.56;5048073;28;20122;-78
2022/03/01 03:53:50;;;;;;;21.80;8.32;;;;;;;-2.61;100.00;99311.81;5048675;28;20076;-79
2022/03/01 03:56:17;;;;;;;17.27;8.20;;;;;;;-2.61;100.00;99317.13;5049188;28;20485;-78
2022/03/01 03:58:44;;;;;;;20.48;8.07;;;;;;;-2.45;100.00;99331.16;5048738;28;20072;-77
2022/03/01 04:01:11;;;;;;;18.05;7.60;;;;;;;-2.62;100.00;99318.16;5048958;28;20045;-78
2022/03/01 04:03:38;;;;;;;20.70;8.25;;;;;;;-2.47;100.00;99323.38;5047894;28;20045;-79
2022/03/01 04:06:04;;;;;;;17.85;7.43;;;;;;;-2.55;100.00;99334.09;5048639;28;20040;-79
2022/03/01 04:08:31;;;;;;;22.08;8.68;;;;;;;-2.86;100.00;99334.41;5049004;28;20096;-78
2022/03/01 04:10:58;;;;;;;20.13;8.32;;;;;;;-2.67;100.00;99328.50;5049426;28;20566;-79
2022/03/01 04:13:27;;;;;;;18.95;8.45;;;;;;;-2.68;100.00;99320.72;5048720;28;20045;-80
2022/03/01 04:15:54;;;;;;;22.35;8.80;;;;;;;-2.58;100.00;99334.50;5067361;28;20044;-77
2022/03/01 04:18:20;;;;;;;27.05;7.85;;;;;;;-2.53;100.00;99332.09;5068356;28;20106;-79
2022/03/01 04:20:47;;;;;;;18.83;8.55;;;;;;;-2.50;100.00;99322.94;5067892;28;20048;-78
2022/03/01 04:23:13;;;;;;;23.15;8.10;;;;;;;-2.51;100.00;99335.38;5062307;28;20048;-75
2022/03/01 04:25:40;;;;;;;18.30;9.13;;;;;;;-2.50;100.00;99328.25;5037316;28;20068;-76
2022/03/01 04:28:07;;;;;;;21.15;8.43;;;;;;;-2.48;100.00;99326.22;5036413;28;20119;-79
2022/03/01 04:30:34;;;;;;;22.23;8.38;;;;;;;-2.45;100.00;99305.44;5035636;28;20118;-78
2022/03/01 04:33:00;;;;;;;22.60;8.65;;;;;;;-2.45;100.00;99321.34;5026312;28;20059;-77
2022/03/01 04:35:27;;;;;;;17.52;7.88;;;;;;;-2.58;100.00;99323.91;5027845;28;20054;-77
2022/03/01 04:37:54;;;;;;;24.80;9.50;;;;;;;-2.55;100.00;99318.19;5028793;28;20037;-78
2022/03/01 04:40:21;;;;;;;22.48;8.23;;;;;;;-2.66;100.00;99330.13;5028321;28;20045;-77
2022/03/01 04:42:49;;;;;;;22.80;8.65;;;;;;;-2.81;100.00;99329.34;5026749;28;20049;-79
2022/03/01 04:45:16;;;;;;;24.67;8.45;;;;;;;-3.02;100.00;99324.03;5027364;28;20080;-76
2022/03/01 04:47:43;;;;;;;19.90;7.70;;;;;;;-3.01;100.00;99320.38;5031402;28;20046;-77
2022/03/01 04:50:11;;;;;;;21.30;8.68;;;;;;;-2.88;100.00;99323.19;5030417;28;20076;-77
2022/03/01 04:52:38;;;;;;;23.48;8.65;;;;;;;-2.98;100.00;99309.41;5030719;28;20470;-77
2022/03/01 04:55:05;;;;;;;19.77;8.85;;;;;;;-2.97;100.00;99328.78;5030958;28;20053;-78
2022/03/01 04:57:32;;;;;;;21.63;8.75;;;;;;;-3.15;100.00;99313.31;5031568;28;20076;-77
2022/03/01 04:59:58;;;;;;;21.00;8.65;;;;;;;-2.99;100.00;99321.00;5031472;28;20046;-77
2022/03/01 05:02:25;;;;;;;22.48;8.20;;;;;;;-2.91;100.00;99336.78;5033795;28;20053;-77
2022/03/01 05:04:52;;;;;;;24.55;8.80;;;;;;;-2.80;100.00;99335.47;5050890;28;20049;-77
2022/03/01 05:07:18;;;;;;;20.50;8.55;;;;;;;-2.83;100.00;99344.63;5051776;28;20671;-78
2022/03/01 05:09:45;;;;;;;21.17;8.65;;;;;;;-2.80;100.00;99331.00;5041495;28;20152;-75
2022/03/01 05:12:12;;;;;;;28.67;9.48;;;;;;;-2.84;100.00;99329.72;5029183;28;20115;-77
2022/03/01 05:14:38;;;;;;;23.65;9.13;;;;;;;-2.77;100.00;99332.47;5029155;28;20512;-77
2022/03/01 05:17:05;;;;;;;20.67;8.82;;;;;;;-2.88;100.00;99328.47;5029906;28;20050;-77
2022/03/01 05:19:33;;;;;;;20.90;9.05;;;;;;;-2.95;100.00;99335.53;5029036;28;20060;-78
2022/03/01 05:22:00;;;;;;;26.00;9.27;;;;;;;-2.88;100.00;99336.41;5029477;28;20063;-78
2022/03/01 05:24:27;;;;;;;22.52;8.73;;;;;;;-2.86;100.00;99350.31;5028912;28;20113;-78
2022/03/01 05:26:54;;;;;;;18.98;8.73;;;;;;;-2.90;100.00;99332.31;5030391;28;20049;-77
2022/03/01 05:29:22;;;;;;;21.15;8.20;;;;;;;-3.13;100.00;99331.66;5028996;28;20065;-78
2022/03/01 05:31:48;;;;;;;21.25;9.38;;;;;;;-2.89;100.00;99332.13;5031509;28;20049;-77
2022/03/01 05:34:17;;;;;;;22.23;8.60;;;;;;;-2.77;100.00;99333.28;5030033;28;20049;-79
2022/03/01 05:36:47;;;;;;;20.08;8.52;;;;;;;-2.78;100.00;99341.41;5058456;28;20105;-78
2022/03/01 05:39:14;;;;;;;23.75;9.02;;;;;;;-2.73;100.00;99333.72;5075020;28;20063;-81
2022/03/01 05:41:41;;;;;;;25.27;9.40;;;;;;;-2.69;100.00;99338.47;5059502;28;20049;-76
2022/03/01 05:44:08;;;;;;;21.52;8.45;;;;;;;-2.88;100.00;99339.06;5048415;28;20348;-76
2022/03/01 05:46:35;;;;;;;22.13;8.30;;;;;;;-3.07;100.00;99331.72;5051721;28;20080;-77
2022/03/01 05:49:02;;;;;;;23.30;9.05;;;;;;;-3.13;100.00;99343.06;5048238;28;20056;-77
2022/03/01 05:51:28;;;;;;;22.48;8.68;;;;;;;-3.22;100.00;99336.22;5048430;28;20242;-77
2022/03/01 05:53:55;;;;;;;23.58;8.38;;;;;;;-3.22;100.00;99341.50;5039652;28;20037;-77
2022/03/01 05:56:22;;;;;;;23.20;8.40;;;;;;;-3.20;100.00;99339.53;5048974;28;20171;-77
2022/03/01 05:58:48;;;;;;;21.65;8.98;;;;;;;-3.33;100.00;99334.84;5049259;28;20064;-78
2022/03/01 06:01:15;;;;;;;20.65;9.02;;;;;;;-3.28;100.00;99336.97;5044224;28;20041;-77
2022/03/01 06:03:42;;;;;;;25.58;9.80;;;;;;;-3.28;100.00;99350.22;5048278;28;20041;-78
2022/03/01 06:06:11;;;;;;;20.10;8.95;;;;;;;-3.18;100.00;99345.44;5053528;28;20306;-78
2022/03/01 06:08:38;;;;;;;22.85;8.60;;;;;;;-3.28;100.00;99358.16;5054117;28;20064;-78
2022/03/01 06:11:04;;;;;;;21.95;8.70;;;;;;;-3.38;100.00;99353.13;5040673;28;20068;-78
2022/03/01 06:13:31;;;;;;;25.77;9.40;;;;;;;-3.38;100.00;99358.41;5032843;28;20271;-75
2022/03/01 06:16:00;;;;;;;21.35;9.18;;;;;;;-3.26;100.00;99364.91;5040844;28;20060;-78
2022/03/01 06:18:27;;;;;;;22.58;9.18;;;;;;;-3.22;100.00;99355.59;5041324;28;20320;-79
2022/03/01 06:20:54;;;;;;;19.25;8.57;;;;;;;-3.17;100.00;99371.75;5050898;28;20365;-76
2022/03/01 06:23:21;;;;;;;22.02;9.23;;;;;;;-3.19;100.00;99357.88;5041486;28;20061;-77
2022/03/01 06:25:48;;;;;;;24.08;8.93;;;;;;;-3.03;100.00;99358.66;5026167;28;20042;-77
2022/03/01 06:28:15;;;;;;;23.63;9.00;;;;;;;-3.01;100.00;99357.47;5028654;28;20056;-78
2022/03/01 06:30:41;;;;;;;24.35;9.68;;;;;;;-3.06;100.00;99359.84;5037760;28;20684;-75
2022/03/01 06:33:08;;;;;;;20.85;9.35;;;;;;;-3.01;100.00;99354.00;5044847;28;20049;-77
2022/03/01 06:35:35;;;;;;;21.65;9.05;;;;;;;-2.98;100.00;99361.56;5035681;28;20477;-78
2022/03/01 06:38:01;;;;;;;23.00;9.70;;;;;;;-2.83;100.00;99365.00;5046396;28;20060;-76
2022/03/01 06:40:31;;;;;;;24.23;9.63;;;;;;;-2.73;100.00;99360.22;5037638;28;20053;-77
2022/03/01 06:42:57;;;;;;;20.10;8.25;;;;;;;-2.63;100.00;99350.94;5039601;28;20053;-77
2022/03/01 06:45:24;;;;;;;22.42;9.40;;;;;;;-2.51;100.00;99353.94;5042297;28;20125;-77
2022/03/01 06:47:51;;;;;;;24.58;9.57;;;;;;;-2.44;100.00;99338.91;5037150;28;20523;-78
2022/03/01 06:50:17;;;;;;;33.40;13.25;;;;;;;-2.20;100.00;99343.81;5039636;28;20049;-79
2022/03/01 06:52:44;;;;;;;44.20;14.70;;;;;;;-2.09;100.00;99337.19;5028787;28;20061;-77
2022/03/01 06:55:11;;;;;;;27.08;10.68;;;;;;;-1.88;100.00;99346.94;5037710;28;20045;-77
2022/03/01 06:57:42;;;;;;;26.10;9.70;;;;;;;-1.70;100.00;99345.41;5041408;28;20435;-78
2022/03/01 07:00:12;;;;;;;21.05;9.75;;;;;;;-1.55;100.00;99330.19;5024417;28;20374;-78
2022/03/01 07:02:40;;;;;;;30.33;11.45;;;;;;;-1.46;100.00;99328.19;5041481;28;20413;-75
2022/03/01 07:05:09;;;;;;;26.60;9.52;;;;;;;-1.21;100.00;99328.53;5040552;28;20049;-78
2022/03/01 07:07:37;;;;;;;22.80;9.77;;;;;;;-1.07;100.00;99319.56;5044406;28;20049;-79
2022/03/01 07:10:06;;;;;;;26.88;11.75;;;;;;;-0.97;100.00;99325.34;5041150;28;20052;-79
2022/03/01 07:12:33;;;;;;;26.90;11.90;;;;;;;-0.71;100.00;99333.38;5035242;28;20053;-79
2022/03/01 07:15:00;;;;;;;22.88;9.25;;;;;;;-0.77;100.00;99328.88;5035158;28;20103;-78
2022/03/01 07:17:27;;;;;;;23.15;9.60;;;;;;;-0.49;100.00;99329.53;5046226;28;20362;-79
2022/03/01 07:19:53;;;;;;;21.42;9.07;;;;;;;-0.32;100.00;99332.63;5050945;28;20041;-78
2022/03/01 07:22:20;;;;;;;22.10;8.43;;;;;;;-0.23;100.00;99324.25;5048190;28;20060;-78
2022/03/01 07:24:46;;;;;;;27.77;9.90;;;;;;;-0.19;100.00;99316.69;5048066;28;20056;-76
2022/03/01 07:27:13;;;;;;;26.83;9.40;;;;;;;-0.19;100.00;99314.03;5050153;28;20065;-78
2022/03/01 07:29:40;;;;;;;35.47;11.98;;;;;;;0.05;100.00;99315.25;5053886;28;20045;-78
2022/03/01 07:32:07;;;;;;;31.52;12.98;;;;;;;0.26;100.00;99301.72;5048580;28;20048;-79
2022/03/01 07:34:35;;;;;;;50.45;18.25;;;;;;;0.37;100.00;99301.03;5049628;28;20060;-80
2022/03/01 07:37:04;;;;;;;46.45;16.08;;;;;;;0.47;100.00;99302.25;5052110;28;20057;-79
2022/03/01 07:39:30;;;;;;;66.60;21.52;;;;;;;0.57;100.00;99309.78;5048753;28;20052;-79
2022/03/01 07:41:57;;;;;;;41.22;13.68;;;;;;;0.73;93.95;99306.69;5045495;28;20052;-78
2022/03/01 07:44:24;;;;;;;33.08;11.63;;;;;;;0.67;87.46;99312.88;5046062;28;20052;-80
2022/03/01 07:46:51;;;;;;;70.72;20.48;;;;;;;1.04;89.67;99306.75;5054170;28;20068;-78
2022/03/01 07:49:18;;;;;;;79.78;24.45;;;;;;;1.17;83.81;99313.88;5051207;28;20064;-79
2022/03/01 07:51:44;;;;;;;33.70;12.90;;;;;;;1.35;81.46;99305.13;5053272;28;20053;-77
2022/03/01 07:54:11;;;;;;;50.88;16.02;;;;;;;1.46;79.21;99323.97;5049501;28;20116;-79
2022/03/01 07:56:40;;;;;;;77.78;23.13;;;;;;;1.51;78.61;99320.66;5031528;28;20050;-78
2022/03/01 07:59:12;;;;;;;34.75;12.02;;;;;;;1.60;72.85;99319.38;5042646;28;20443;-79
2022/03/01 08:01:42;;;;;;;23.58;9.02;;;;;;;1.71;69.48;99318.66;5037302;28;20045;-78
2022/03/01 08:04:12;;;;;;;25.38;8.27;;;;;;;1.73;67.61;99319.28;5040037;28;20025;-79
2022/03/01 08:06:39;;;;;;;16.65;7.75;;;;;;;2.02;66.59;99323.97;5050182;28;20435;-79
2022/03/01 08:09:06;;;;;;;20.15;8.57;;;;;;;2.12;67.10;99310.09;5042999;28;20041;-79
2022/03/01 08:11:32;;;;;;;22.40;8.35;;;;;;;2.05;65.81;99307.50;5044531;28;20443;-79
2022/03/01 08:13:59;;;;;;;19.98;8.00;;;;;;;2.38;65.80;99317.88;5050023;28;20099;-79
2022/03/01 08:16:26;;;;;;;20.30;7.80;;;;;;;2.16;65.11;99312.13;5051729;28;20571;-78
2022/03/01 08:18:54;;;;;;;21.42;8.35;;;;;;;2.60;63.54;99319.09;5048166;28;20069;-79
2022/03/01 08:21:21;;;;;;;19.52;8.05;;;;;;;2.77;61.98;99305.94;5045190;28;20063;-80
2022/03/01 08:23:52;;;;;;;21.33;8.02;;;;;;;2.78;61.03;99295.03;5034663;28;20064;-79
2022/03/01 08:26:19;;;;;;;19.35;7.82;;;;;;;3.03;60.88;99305.63;5040639;28;20198;-80
2022/03/01 08:28:46;;;;;;;20.70;8.02;;;;;;;3.33;60.94;99309.13;5050695;28;20517;-81
2022/03/01 08:31:13;;;;;;;27.25;7.85;;;;;;;3.14;60.21;99281.59;5061112;28;20033;-79
2022/03/01 08:33:40;;;;;;;20.20;7.43;;;;;;;3.20;58.93;99263.00;5052965;28;20861;-79
2022/03/01 08:36:08;;;;;;;18.90;7.43;;;;;;;3.12;56.65;99299.72;5051253;28;20049;-77
2022/03/01 08:38:36;;;;;;;16.83;7.07;;;;;;;3.39;56.96;99285.97;5048449;28;20057;-79
2022/03/01 08:41:08;;;;;;;16.92;6.50;;;;;;;3.62;57.78;99296.75;5036267;28;20266;-79
2022/03/01 08:43:35;;;;;;;19.25;7.40;;;;;;;3.53;55.94;99298.13;5030586;28;20045;-79
2022/03/01 08:46:02;;;;;;;18.20;7.53;;;;;;;3.66;55.42;99290.72;5032310;28;20049;-79
2022/03/01 08:48:29;;;;;;;20.00;7.75;;;;;;;3.72;55.27;99283.63;5036390;28;20047;-78
2022/03/01 08:50:56;;;;;;;16.30;7.28;;;;;;;3.99;55.67;99281.34;5045312;28;20454;-79
2022/03/01 08:53:23;;;;;;;20.73;7.80;;;;;;;3.99;54.64;99282.16;5053795;28;20060;-80
2022/03/01 08:55:49;;;;;;;15.85;7.00;;;;;;;4.22;53.89;99279.47;5056521;28;20041;-79
2022/03/01 08:58:16;;;;;;;20.75;7.28;;;;;;;4.40;53.90;99273.16;5074357;28;20097;-81
2022/03/01 09:00:44;;;;;;;20.17;7.57;;;;;;;4.48;52.79;99263.94;5074949;28;20068;-81
2022/03/01 09:03:10;;;;;;;16.75;7.38;;;;;;;4.63;52.48;99265.09;5055471;28;20056;-78
2022/03/01 09:05:57;;;;;;;16.83;6.97;;;;;;;4.85;51.81;99270.66;5050155;28;20053;-78
2022/03/01 09:08:28;;;;;;;17.63;6.45;;;;;;;5.07;51.13;99262.75;5046095;28;20056;-79
2022/03/01 09:10:55;;;;;;;19.65;7.05;;;;;;;5.22;51.07;99257.66;5053451;28;20045;-79
2022/03/01 09:13:22;;;;;;;18.33;7.60;;;;;;;5.11;50.74;99245.13;5053222;28;20084;-77
2022/03/01 09:15:48;;;;;;;16.35;6.72;;;;;;;5.49;49.99;99231.84;5050871;28;20052;-79
2022/03/01 09:18:15;;;;;;;17.65;7.35;;;;;;;5.83;50.97;99244.25;5030691;28;20103;-78
2022/03/01 09:20:42;;;;;;;20.67;8.23;;;;;;;5.63;50.62;99249.25;5032139;28;20041;-78
2022/03/01 09:23:08;;;;;;;13.20;6.70;;;;;;;5.73;50.42;99237.88;5043256;28;20072;-78
2022/03/01 09:25:35;;;;;;;15.45;6.65;;;;;;;6.05;49.76;99244.31;5050025;28;20053;-78
2022/03/01 09:28:02;;;;;;;14.82;6.38;;;;;;;6.20;47.47;99237.28;5051176;28;20049;-78
2022/03/01 09:30:30;;;;;;;13.73;5.78;;;;;;;6.12;47.29;99242.25;5050613;28;20103;-78
2022/03/01 09:32:56;;;;;;;14.48;5.93;;;;;;;6.88;47.22;99244.09;5049473;28;20049;-78
2022/03/01 09:35:23;;;;;;;11.07;5.65;;;;;;;6.86;46.53;99238.97;5049846;28;20543;-77
2022/03/01 09:37:50;;;;;;;16.58;6.00;;;;;;;6.66;45.53;99225.25;5042383;28;20068;-78
2022/03/01 09:40:17;;;;;;;14.55;5.78;;;;;;;7.44;45.60;99230.16;5050360;28;20057;-79
2022/03/01 09:42:44;;;;;;;16.45;5.32;;;;;;;8.12;42.76;99228.56;5034418;28;20122;-78
2022/03/01 09:45:12;;;;;;;12.15;5.40;;;;;;;9.34;41.13;99218.00;5029296;28;20345;-78
2022/03/01 09:47:39;;;;;;;13.48;5.57;;;;;;;10.69;38.79;99204.63;5029205;28;20049;-78
2022/03/01 09:50:08;;;;;;;14.18;5.50;;;;;;;10.54;38.40;99201.97;5031067;28;20037;-79
2022/03/01 09:52:36;;;;;;;11.18;5.10;;;;;;;11.92;36.46;99203.63;5031717;28;20056;-78
2022/03/01 09:55:04;;;;;;;10.52;4.60;;;;;;;13.49;35.75;99196.03;5029120;28;20049;-78
2022/03/01 09:57:30;;;;;;;11.00;5.10;;;;;;;11.27;36.38;99209.22;5045515;28;20057;-78
2022/03/01 09:59:57;;;;;;;13.77;5.40;;;;;;;12.01;36.91;99201.88;5049907;28;20163;-78
2022/03/01 10:02:40;;;;;;;12.18;5.20;;;;;;;13.61;34.05;99188.22;5049817;28;20056;-77
2022/03/01 10:05:09;;;;;;;9.50;4.55;;;;;;;14.73;33.53;99198.75;5048765;28;20059;-78
2022/03/01 10:07:42;;;;;;;8.82;4.50;;;;;;;14.23;33.99;99192.31;5039154;28;20520;-78
2022/03/01 10:10:16;;;;;;;10.23;4.85;;;;;;;14.24;32.62;99201.31;5049347;28;20390;-78
2022/03/01 10:12:51;;;;;;;11.95;4.35;;;;;;;15.33;31.93;99190.38;5050434;28;20052;-78
2022/03/01 10:15:18;;;;;;;12.75;4.60;;;;;;;14.48;32.59;99191.03;5048390;28;20059;-78
2022/03/01 10:17:46;;;;;;;8.93;4.57;;;;;;;15.23;31.47;99187.84;5040601;28;20049;-79
2022/03/01 10:20:18;;;;;;;11.38;4.82;;;;;;;14.32;32.34;99184.28;5039689;28;20400;-78
2022/03/01 10:22:53;;;;;;;8.07;4.25;;;;;;;16.23;30.38;99174.47;5041784;28;20429;-78
2022/03/01 10:25:22;;;;;;;8.30;4.10;;;;;;;15.08;29.71;99167.16;5044505;28;20048;-79
2022/03/01 10:27:50;;;;;;;8.88;4.38;;;;;;;16.07;29.55;99165.06;5043537;28;20045;-79
2022/03/01 10:30:33;;;;;;;8.25;4.28;;;;;;;14.25;32.18;99159.31;5031248;28;20482;-78
2022/03/01 10:33:06;;;;;;;11.35;3.90;;;;;;;17.10;29.77;99153.69;5029216;28;20049;-78
2022/03/01 10:35:35;;;;;;;7.97;4.10;;;;;;;16.68;29.23;99153.28;5036941;28;20053;-78
2022/03/01 10:38:02;;;;;;;10.27;4.28;;;;;;;17.21;28.39;99153.06;5036151;28;20290;-78
2022/03/01 10:40:30;;;;;;;8.00;3.97;;;;;;;16.63;28.35;99144.41;5046888;28;20052;-78
2022/03/01 10:43:10;;;;;;;10.05;4.53;;;;;;;16.45;28.97;99138.06;5048126;28;20336;-78
2022/03/01 10:45:37;;;;;;;8.82;4.43;;;;;;;16.14;30.31;99143.56;5049811;28;20045;-77
2022/03/01 10:48:06;;;;;;;11.48;4.78;;;;;;;17.68;28.38;99132.13;5035595;28;20422;-78
2022/03/01 10:50:32;;;;;;;8.32;4.47;;;;;;;16.46;28.72;99131.47;5043311;28;20051;-77
2022/03/01 10:52:59;;;;;;;8.52;4.13;;;;;;;17.61;28.12;99131.00;5049185;28;20059;-78
2022/03/01 10:55:30;;;;;;;9.63;3.92;;;;;;;18.50;27.52;99134.50;5047139;28;20163;-78
2022/03/01 10:58:03;;;;;;;6.63;3.70;;;;;;;18.68;26.81;99125.00;5048134;28;20053;-78
2022/03/01 11:00:32;;;;;;;7.05;3.50;;;;;;;20.33;25.23;99113.09;5027901;28;20052;-77
2022/03/01 11:03:01;;;;;;;7.07;3.80;;;;;;;19.42;25.00;99116.13;5011886;28;20460;-78
2022/03/01 11:05:32;;;;;;;11.23;3.88;;;;;;;18.71;26.97;99115.34;5028406;28;20049;-78
2022/03/01 11:08:22;;;;;;;8.25;3.78;;;;;;;17.01;27.04;99117.31;5027618;28;20053;-77
2022/03/01 11:10:52;;;;;;;8.02;3.75;;;;;;;18.04;26.04;99107.84;5029293;28;20076;-77
2022/03/01 11:13:23;;;;;;;9.35;3.72;;;;;;;13.81;30.40;99116.28;5046497;28;20564;-75
2022/03/01 11:16:06;;;;;;;7.60;3.85;;;;;;;16.87;28.84;99108.44;5029516;28;20045;-77
2022/03/01 11:18:46;;;;;;;5.97;3.50;;;;;;;16.20;29.68;99101.31;5045667;28;20047;-76
2022/03/01 11:21:15;;;;;;;6.07;3.40;;;;;;;19.42;25.63;99098.84;5047243;28;20069;-78
2022/03/01 11:23:43;;;;;;;7.45;3.55;;;;;;;19.67;25.47;99106.03;5053493;28;20452;-77
2022/03/01 11:26:15;;;;;;;6.25;3.63;;;;;;;19.29;25.21;99103.44;5039586;28;20046;-77